createdAt,value
2019-01-14T00:00:14.179Z,91.58
2019-01-14T00:02:41.634Z,91.77
2019-01-14T00:05:09.145Z,91.25
2019-01-14T00:07:37.474Z,90.74
2019-01-14T00:10:04.990Z,91.34
2019-01-14T00:12:32.496Z,90.67
2019-01-14T00:14:59.977Z,90.89
2019-01-14T00:17:27.433Z,90.70
2019-01-14T00:19:54.891Z,90.82
2019-01-14T00:22:22.349Z,90.19
2019-01-14T00:24:49.835Z,90.66
2019-01-14T00:27:17.313Z,90.21
2019-01-14T00:29:44.774Z,90.69
2019-01-14T00:32:12.234Z,90.33
2019-01-14T00:34:39.671Z,89.91
2019-01-14T00:37:07.140Z,90.12
2019-01-14T00:39:34.583Z,90.33
2019-01-14T00:42:02.025Z,90.60
2019-01-14T00:44:29.462Z,90.73
2019-01-14T00:46:56.877Z,90.24
2019-01-14T00:49:24.314Z,90.05
2019-01-14T00:51:52.074Z,90.33
2019-01-14T00:54:21.388Z,90.31
2019-01-14T00:56:48.893Z,90.35
2019-01-14T00:59:16.554Z,89.78
2019-01-14T01:01:44.089Z,90.14
2019-01-14T01:04:11.529Z,89.87
2019-01-14T01:06:39.780Z,90.00
2019-01-14T01:09:07.411Z,90.25
2019-01-14T01:11:34.986Z,90.35
2019-01-14T01:14:02.874Z,90.79
2019-01-14T01:16:30.379Z,90.86
2019-01-14T01:18:58.717Z,91.00
2019-01-14T01:21:26.186Z,91.38
2019-01-14T01:23:53.631Z,91.62
2019-01-14T01:26:21.193Z,91.64
2019-01-14T01:28:48.663Z,92.07
2019-01-14T01:31:16.677Z,91.81
2019-01-14T01:33:44.467Z,91.99
2019-01-14T01:36:11.945Z,91.80
2019-01-14T01:38:39.396Z,91.78
2019-01-14T01:41:06.871Z,91.83
2019-01-14T01:43:34.490Z,91.82
2019-01-14T01:46:01.955Z,91.89
2019-01-14T01:48:29.363Z,92.65
2019-01-14T01:50:56.861Z,92.37
2019-01-14T01:53:24.285Z,92.35
2019-01-14T01:55:51.736Z,92.28
2019-01-14T01:58:19.195Z,92.63
2019-01-14T02:00:47.034Z,92.76
2019-01-14T02:03:14.455Z,93.22
2019-01-14T02:05:41.906Z,92.99
2019-01-14T02:08:09.338Z,92.54
2019-01-14T02:10:36.790Z,93.09
2019-01-14T02:13:04.251Z,92.89
2019-01-14T02:15:32.827Z,93.58
2019-01-14T02:18:00.359Z,93.06
2019-01-14T02:20:27.807Z,93.42
2019-01-14T02:22:56.227Z,93.02
2019-01-14T02:25:22.727Z,92.57
2019-01-14T02:27:50.165Z,92.93
2019-01-14T02:30:17.601Z,93.34
2019-01-14T02:32:45.069Z,93.29
2019-01-14T02:35:12.479Z,93.41
2019-01-14T02:37:39.927Z,94.07
2019-01-14T02:40:08.929Z,93.87
2019-01-14T02:42:36.374Z,94.07
2019-01-14T02:45:03.846Z,93.51
2019-01-14T02:47:31.276Z,93.31
2019-01-14T02:49:59.575Z,93.13
2019-01-14T02:52:27.123Z,92.76
2019-01-14T02:54:54.537Z,92.47
2019-01-14T02:57:21.951Z,92.31
2019-01-14T02:59:49.409Z,92.89
2019-01-14T03:02:17.874Z,93.09
2019-01-14T03:04:45.322Z,93.22
2019-01-14T03:07:12.762Z,93.77
2019-01-14T03:09:40.184Z,93.51
2019-01-14T03:12:07.602Z,93.50
2019-01-14T03:14:35.090Z,93.36
2019-01-14T03:17:02.522Z,92.88
2019-01-14T03:19:29.970Z,93.74
2019-01-14T03:21:57.465Z,93.84
2019-01-14T03:24:25.783Z,94.26
2019-01-14T03:26:53.290Z,95.32
2019-01-14T03:29:20.735Z,95.02
2019-01-14T03:31:48.176Z,94.54
2019-01-14T03:34:15.607Z,94.99
2019-01-14T03:36:44.552Z,95.40
2019-01-14T03:39:12.071Z,95.37
2019-01-14T03:41:39.505Z,95.35
2019-01-14T03:44:06.939Z,95.33
2019-01-14T03:46:34.385Z,95.27
2019-01-14T03:49:03.363Z,95.84
2019-01-14T03:51:30.825Z,95.42
2019-01-14T03:53:58.250Z,94.96
2019-01-14T03:56:25.689Z,94.41
2019-01-14T03:58:53.156Z,95.21
2019-01-14T04:01:20.627Z,95.08
2019-01-14T04:03:48.075Z,95.11
2019-01-14T04:06:15.503Z,96.30
2019-01-14T04:08:44.246Z,95.55
2019-01-14T04:11:11.969Z,95.58
2019-01-14T04:13:39.481Z,95.22
2019-01-14T04:16:06.903Z,94.57
2019-01-14T04:18:34.334Z,95.02
2019-01-14T04:21:01.765Z,96.47
2019-01-14T04:23:29.222Z,96.96
2019-01-14T04:25:56.641Z,96.79
2019-01-14T04:28:24.089Z,96.49
2019-01-14T04:30:51.510Z,96.91
2019-01-14T04:33:18.963Z,96.22
2019-01-14T04:35:46.397Z,95.88
2019-01-14T04:38:13.867Z,95.87
2019-01-14T04:40:41.302Z,96.12
2019-01-14T04:43:09.303Z,96.00
2019-01-14T04:45:36.735Z,95.86
2019-01-14T04:48:04.187Z,95.65
2019-01-14T04:50:31.663Z,96.19
2019-01-14T04:52:59.108Z,96.67
2019-01-14T04:55:26.560Z,96.06
2019-01-14T04:57:53.995Z,95.61
2019-01-14T05:00:21.451Z,95.17
2019-01-14T05:02:48.879Z,95.11
2019-01-14T05:05:16.346Z,94.52
2019-01-14T05:07:43.790Z,95.01
2019-01-14T05:10:18.882Z,95.09
2019-01-14T05:12:46.381Z,94.34
2019-01-14T05:15:13.842Z,93.61
2019-01-14T05:17:41.262Z,93.00
2019-01-14T05:20:09.670Z,92.87
2019-01-14T05:22:37.148Z,93.47
2019-01-14T05:25:04.595Z,92.92
2019-01-14T05:27:32.016Z,92.47
2019-01-14T05:29:59.461Z,92.09
2019-01-14T05:32:26.931Z,92.33
2019-01-14T05:34:55.336Z,93.25
2019-01-14T05:37:22.854Z,92.90
2019-01-14T05:39:50.286Z,92.77
2019-01-14T05:42:17.767Z,93.17
2019-01-14T05:44:45.191Z,92.42
2019-01-14T05:47:12.620Z,92.19
2019-01-14T05:49:40.078Z,92.18
2019-01-14T05:52:07.523Z,92.50
2019-01-14T05:54:34.946Z,92.35
2019-01-14T05:57:03.242Z,92.00
2019-01-14T05:59:30.684Z,91.99
2019-01-14T06:01:58.136Z,93.28
2019-01-14T06:04:25.597Z,92.81
2019-01-14T06:06:53.057Z,93.09
2019-01-14T06:09:20.491Z,93.72
2019-01-14T06:11:47.983Z,93.72
2019-01-14T06:14:15.401Z,93.33
2019-01-14T06:16:42.849Z,93.71
2019-01-14T06:19:10.305Z,94.43
2019-01-14T06:21:37.753Z,93.68
2019-01-14T06:24:05.186Z,93.10
2019-01-14T06:26:32.637Z,93.34
2019-01-14T06:29:00.061Z,93.86
2019-01-14T06:31:28.109Z,94.95
2019-01-14T06:33:55.552Z,94.46
2019-01-14T06:36:22.968Z,94.26
2019-01-14T06:38:50.450Z,93.91
2019-01-14T06:41:17.896Z,93.55
2019-01-14T06:43:45.391Z,93.70
2019-01-14T06:46:12.816Z,93.88
2019-01-14T06:48:40.322Z,93.06
2019-01-14T06:51:07.778Z,91.83
2019-01-14T06:53:35.207Z,91.47
2019-01-14T06:56:03.241Z,92.17
2019-01-14T06:58:30.727Z,92.35
2019-01-14T07:00:58.251Z,91.72
2019-01-14T07:03:25.732Z,90.72
2019-01-14T07:05:53.175Z,91.09
2019-01-14T07:08:20.601Z,90.66
2019-01-14T07:10:48.062Z,90.66
2019-01-14T07:13:15.491Z,89.78
2019-01-14T07:15:42.936Z,89.97
2019-01-14T07:18:10.392Z,90.78
2019-01-14T07:20:37.798Z,90.93
2019-01-14T07:23:05.241Z,91.27
2019-01-14T07:25:32.675Z,90.96
2019-01-14T07:28:00.171Z,91.95
2019-01-14T07:30:27.661Z,91.65
2019-01-14T07:32:55.123Z,92.52
2019-01-14T07:35:22.574Z,92.42
2019-01-14T07:37:49.997Z,91.43
2019-01-14T07:40:17.461Z,91.56
2019-01-14T07:42:44.932Z,91.87
2019-01-14T07:45:12.405Z,91.37
2019-01-14T07:47:39.849Z,90.40
2019-01-14T07:50:07.275Z,89.94
2019-01-14T07:52:35.323Z,90.30
2019-01-14T07:55:02.798Z,91.08
2019-01-14T07:57:30.244Z,90.95
2019-01-14T07:59:57.686Z,89.59
2019-01-14T08:02:25.141Z,90.37
2019-01-14T08:04:52.557Z,91.22
2019-01-14T08:07:20.264Z,90.92
2019-01-14T08:09:47.706Z,90.98
2019-01-14T08:12:15.171Z,90.69
2019-01-14T08:14:42.827Z,90.85
2019-01-14T08:17:10.117Z,90.85
2019-01-14T08:19:37.582Z,90.65
2019-01-14T08:22:05.030Z,90.97
2019-01-14T08:24:32.485Z,90.75
2019-01-14T08:26:59.979Z,90.55
2019-01-14T08:29:27.429Z,89.91
2019-01-14T08:31:54.919Z,90.39
2019-01-14T08:34:22.390Z,90.90
2019-01-14T08:36:50.432Z,91.13
2019-01-14T08:39:17.871Z,91.25
2019-01-14T08:41:45.279Z,91.55
2019-01-14T08:44:12.740Z,91.52
2019-01-14T08:46:40.198Z,91.79
2019-01-14T08:49:08.443Z,91.55
2019-01-14T08:51:36.001Z,92.01
2019-01-14T08:54:03.435Z,91.80
2019-01-14T08:56:30.854Z,91.84
2019-01-14T08:58:58.301Z,92.02
2019-01-14T09:01:25.766Z,92.02
2019-01-14T09:03:53.223Z,92.20
2019-01-14T09:06:20.654Z,92.16
2019-01-14T09:08:48.090Z,91.90
2019-01-14T09:11:15.530Z,92.36
2019-01-14T09:13:42.998Z,92.35
2019-01-14T09:16:10.435Z,92.25
2019-01-14T09:18:37.895Z,92.49
2019-01-14T09:21:05.327Z,92.26
2019-01-14T09:23:32.780Z,92.01
2019-01-14T09:26:00.234Z,92.98
2019-01-14T09:28:27.722Z,92.97
2019-01-14T09:30:55.167Z,92.96
2019-01-14T09:33:22.603Z,92.67
2019-01-14T09:35:50.907Z,92.30
2019-01-14T09:38:18.333Z,92.48
2019-01-14T09:40:45.771Z,91.90
2019-01-14T09:43:13.212Z,91.83
2019-01-14T09:45:40.690Z,91.44
2019-01-14T09:48:08.171Z,90.97
2019-01-14T09:50:35.636Z,91.34
2019-01-14T09:53:03.058Z,91.40
2019-01-14T09:55:30.547Z,90.50
2019-01-14T09:57:58.012Z,90.96
2019-01-14T10:00:25.455Z,90.58
2019-01-14T10:02:55.599Z,90.36
2019-01-14T10:05:21.256Z,90.07
2019-01-14T10:07:48.722Z,89.58
2019-01-14T10:10:16.160Z,88.59
2019-01-14T10:12:43.638Z,88.78
2019-01-14T10:15:12.537Z,87.77
2019-01-14T10:17:39.976Z,88.74
2019-01-14T10:20:07.464Z,88.09
2019-01-14T10:22:34.964Z,87.70
2019-01-14T10:25:02.442Z,86.58
2019-01-14T10:27:29.896Z,86.02
2019-01-14T10:29:57.349Z,85.07
2019-01-14T10:32:25.840Z,84.69
2019-01-14T10:34:54.307Z,84.72
2019-01-14T10:37:23.023Z,84.79
2019-01-14T10:39:51.412Z,84.29
2019-01-14T10:42:20.143Z,83.55
2019-01-14T10:44:48.628Z,83.54
2019-01-14T10:47:17.039Z,83.46
2019-01-14T10:49:45.555Z,84.52
2019-01-14T10:52:14.209Z,84.64
2019-01-14T10:54:42.739Z,85.40
2019-01-14T10:57:11.310Z,85.79
2019-01-14T10:59:39.797Z,85.84
2019-01-14T11:02:08.404Z,86.10
2019-01-14T11:04:36.812Z,86.68
2019-01-14T11:07:05.407Z,86.17
2019-01-14T11:09:33.865Z,86.77
2019-01-14T11:12:02.407Z,85.93
2019-01-14T11:14:30.986Z,84.65
2019-01-14T11:16:58.550Z,84.22
2019-01-14T11:19:25.979Z,84.50
2019-01-14T11:21:53.429Z,84.24
2019-01-14T11:24:20.877Z,83.69
2019-01-14T11:26:48.326Z,84.23
2019-01-14T11:29:15.798Z,83.22
2019-01-14T11:31:43.254Z,82.69
2019-01-14T11:34:10.738Z,80.86
2019-01-14T11:36:38.162Z,80.80
2019-01-14T11:39:05.621Z,82.25
2019-01-14T11:41:33.106Z,82.68
2019-01-14T11:44:00.581Z,80.86
2019-01-14T11:46:28.817Z,79.83
2019-01-14T11:48:56.355Z,78.48
2019-01-14T11:51:24.786Z,79.80
2019-01-14T11:53:52.963Z,79.91
2019-01-14T11:56:20.395Z,80.89
2019-01-14T11:58:47.891Z,81.66
2019-01-14T12:01:15.324Z,80.34
2019-01-14T12:03:42.755Z,80.01
2019-01-14T12:06:10.176Z,80.43
2019-01-14T12:08:37.627Z,80.82
2019-01-14T12:11:05.105Z,79.09
2019-01-14T12:13:32.582Z,79.30
2019-01-14T12:16:00.089Z,80.25
2019-01-14T12:18:27.534Z,79.14
2019-01-14T12:20:54.956Z,79.62
2019-01-14T12:23:23.199Z,77.48
2019-01-14T12:25:50.638Z,78.12
2019-01-14T12:28:18.090Z,78.39
2019-01-14T12:30:45.537Z,78.84
2019-01-14T12:33:12.979Z,79.31
2019-01-14T12:35:40.421Z,77.37
2019-01-14T12:38:07.866Z,78.31
2019-01-14T12:40:35.306Z,78.16
2019-01-14T12:43:02.806Z,78.31
2019-01-14T12:45:30.245Z,77.03
2019-01-14T12:47:57.712Z,76.84
2019-01-14T12:50:25.171Z,77.71
2019-01-14T12:52:53.439Z,75.65
2019-01-14T12:55:22.288Z,77.12
2019-01-14T12:57:49.810Z,76.53
2019-01-14T13:00:18.959Z,77.22
2019-01-14T13:02:46.394Z,76.08
2019-01-14T13:05:13.843Z,76.55
2019-01-14T13:07:41.256Z,76.74
2019-01-14T13:10:08.707Z,76.45
2019-01-14T13:12:36.138Z,77.25
2019-01-14T13:15:03.585Z,77.19
2019-01-14T13:17:31.022Z,77.10
2019-01-14T13:19:58.498Z,76.89
2019-01-14T13:22:25.927Z,77.43
2019-01-14T13:24:53.661Z,77.91
2019-01-14T13:27:21.145Z,79.64
2019-01-14T13:29:48.607Z,80.36
2019-01-14T13:32:16.046Z,80.35
2019-01-14T13:34:44.820Z,81.46
2019-01-14T13:37:10.996Z,81.46
2019-01-14T13:39:38.423Z,82.22
2019-01-14T13:42:07.505Z,82.17
2019-01-14T13:44:34.991Z,82.10
2019-01-14T13:47:02.469Z,82.10
2019-01-14T13:49:29.932Z,82.58
2019-01-14T13:51:57.401Z,82.36
2019-01-14T13:54:24.849Z,82.57
2019-01-14T13:56:52.320Z,82.40
2019-01-14T13:59:19.764Z,81.10
2019-01-14T14:01:47.248Z,81.50
2019-01-14T14:04:14.715Z,81.35
2019-01-14T14:06:42.149Z,80.45
2019-01-14T14:09:09.608Z,80.96
2019-01-14T14:11:37.044Z,80.31
2019-01-14T14:14:04.516Z,79.34
2019-01-14T14:16:32.972Z,79.07
2019-01-14T14:19:00.438Z,78.53
2019-01-14T14:21:27.887Z,77.79
2019-01-14T14:23:55.301Z,77.34
2019-01-14T14:26:22.762Z,76.93
2019-01-14T14:28:50.201Z,76.50
2019-01-14T14:31:17.650Z,76.46
2019-01-14T14:33:45.073Z,75.93
2019-01-14T14:36:12.535Z,75.25
2019-01-14T14:38:40.910Z,76.18
2019-01-14T14:41:08.377Z,75.45
2019-01-14T14:43:35.829Z,74.93
2019-01-14T14:46:03.299Z,75.20
2019-01-14T14:48:30.761Z,75.43
2019-01-14T14:50:58.215Z,74.23
2019-01-14T14:53:25.693Z,74.77
2019-01-14T14:55:53.254Z,75.48
2019-01-14T14:58:20.846Z,73.88
2019-01-14T15:00:48.273Z,74.55
2019-01-14T15:03:15.744Z,74.91
2019-01-14T15:05:44.064Z,75.37
2019-01-14T15:08:11.587Z,74.66
2019-01-14T15:10:39.011Z,74.83
2019-01-14T15:13:06.472Z,75.04
2019-01-14T15:15:33.921Z,74.98
2019-01-14T15:18:01.390Z,75.21
2019-01-14T15:20:28.833Z,74.99
2019-01-14T15:22:56.282Z,75.09
2019-01-14T15:25:24.738Z,75.48
2019-01-14T15:27:52.195Z,75.70
2019-01-14T15:30:20.989Z,75.75
2019-01-14T15:32:48.426Z,76.29
2019-01-14T15:35:15.884Z,75.17
2019-01-14T15:37:43.318Z,75.73
2019-01-14T15:40:10.852Z,74.69
2019-01-14T15:42:38.323Z,74.97
2019-01-14T15:45:05.762Z,75.50
2019-01-14T15:47:33.227Z,75.53
2019-01-14T15:50:00.656Z,75.16
2019-01-14T15:52:28.153Z,75.69
2019-01-14T15:54:55.614Z,75.87
2019-01-14T15:57:23.062Z,76.03
2019-01-14T15:59:50.505Z,74.68
2019-01-14T16:02:17.953Z,75.33
2019-01-14T16:04:45.410Z,75.91
2019-01-14T16:07:12.865Z,75.83
2019-01-14T16:09:40.279Z,75.74
2019-01-14T16:12:07.720Z,74.84
2019-01-14T16:14:35.166Z,74.56
2019-01-14T16:17:02.655Z,75.70
2019-01-14T16:19:30.102Z,76.28
2019-01-14T16:21:57.558Z,77.28
2019-01-14T16:24:25.223Z,76.96
2019-01-14T16:26:52.649Z,77.65
2019-01-14T16:29:20.121Z,78.09
2019-01-14T16:31:47.561Z,77.53
2019-01-14T16:34:14.998Z,77.69
2019-01-14T16:36:43.365Z,78.63
2019-01-14T16:39:10.917Z,78.82
2019-01-14T16:41:38.354Z,78.79
2019-01-14T16:44:05.855Z,78.86
2019-01-14T16:46:34.170Z,79.28
2019-01-14T16:49:01.618Z,79.18
2019-01-14T16:51:29.075Z,79.25
2019-01-14T16:53:56.511Z,79.88
2019-01-14T16:56:23.981Z,80.39
2019-01-14T16:58:51.448Z,80.59
2019-01-14T17:01:18.874Z,80.35
2019-01-14T17:03:46.326Z,80.55
2019-01-14T17:06:13.792Z,81.09
2019-01-14T17:08:41.212Z,81.72
2019-01-14T17:11:08.651Z,81.66
2019-01-14T17:13:36.114Z,82.37
2019-01-14T17:16:03.563Z,82.16
2019-01-14T17:18:31.003Z,82.18
2019-01-14T17:20:58.434Z,82.45
2019-01-14T17:23:25.898Z,83.47
2019-01-14T17:25:53.357Z,83.99
2019-01-14T17:28:20.774Z,83.88
2019-01-14T17:30:48.198Z,83.77
2019-01-14T17:33:15.640Z,84.46
2019-01-14T17:35:43.102Z,83.93
2019-01-14T17:38:10.557Z,84.34
2019-01-14T17:40:37.984Z,84.52
2019-01-14T17:43:05.449Z,84.93
2019-01-14T17:45:32.926Z,84.83
2019-01-14T17:48:00.359Z,85.64
2019-01-14T17:50:27.771Z,85.16
2019-01-14T17:52:56.084Z,85.57
2019-01-14T17:55:23.515Z,85.66
2019-01-14T17:57:50.977Z,85.65
2019-01-14T18:00:18.437Z,85.69
2019-01-14T18:02:45.844Z,85.15
2019-01-14T18:05:13.260Z,85.46
2019-01-14T18:07:40.710Z,85.30
2019-01-14T18:10:08.188Z,85.20
2019-01-14T18:12:35.595Z,85.65
2019-01-14T18:15:03.032Z,85.86
2019-01-14T18:17:30.474Z,86.19
2019-01-14T18:19:57.903Z,86.49
2019-01-14T18:22:26.265Z,86.57
2019-01-14T18:24:53.704Z,86.35
2019-01-14T18:27:21.171Z,86.03
2019-01-14T18:29:48.613Z,84.75
2019-01-14T18:32:16.075Z,84.56
2019-01-14T18:34:43.548Z,84.54
2019-01-14T18:37:10.965Z,83.98
2019-01-14T18:39:38.457Z,83.89
2019-01-14T18:42:05.913Z,83.96
2019-01-14T18:44:33.355Z,84.09
2019-01-14T18:47:02.184Z,84.52
2019-01-14T18:49:29.731Z,84.48
2019-01-14T18:51:57.171Z,84.83
2019-01-14T18:54:24.594Z,84.99
2019-01-14T18:56:52.057Z,84.45
2019-01-14T18:59:19.494Z,84.22
2019-01-14T19:01:47.767Z,84.62
2019-01-14T19:04:15.191Z,84.83
2019-01-14T19:06:42.664Z,84.54
2019-01-14T19:09:10.113Z,84.46
2019-01-14T19:11:37.546Z,84.03
2019-01-14T19:14:05.017Z,83.50
2019-01-14T19:16:32.504Z,83.22
2019-01-14T19:18:59.930Z,83.29
2019-01-14T19:21:27.383Z,83.96
2019-01-14T19:23:55.653Z,84.29
2019-01-14T19:26:23.178Z,84.17
2019-01-14T19:28:51.173Z,84.32
2019-01-14T19:31:18.619Z,83.61
2019-01-14T19:33:46.062Z,83.96
2019-01-14T19:36:13.553Z,83.88
2019-01-14T19:38:40.992Z,84.42
2019-01-14T19:41:08.425Z,84.46
2019-01-14T19:43:35.877Z,84.19
2019-01-14T19:46:03.331Z,84.49
2019-01-14T19:48:30.815Z,84.33
2019-01-14T19:50:58.232Z,84.31
2019-01-14T19:53:25.681Z,83.92
2019-01-14T19:55:53.121Z,83.61
2019-01-14T19:58:20.591Z,83.36
2019-01-14T20:00:48.010Z,83.50
2019-01-14T20:03:17.338Z,82.70
2019-01-14T20:05:44.865Z,83.14
2019-01-14T20:08:12.311Z,83.62
2019-01-14T20:10:40.652Z,83.33
2019-01-14T20:13:08.552Z,83.44
2019-01-14T20:15:35.981Z,83.62
2019-01-14T20:18:03.446Z,83.59
2019-01-14T20:20:30.904Z,83.83
2019-01-14T20:22:58.585Z,83.51
2019-01-14T20:25:25.837Z,83.22
2019-01-14T20:27:53.340Z,84.14
2019-01-14T20:30:20.779Z,83.73
2019-01-14T20:32:48.234Z,84.34
2019-01-14T20:35:16.473Z,84.82
2019-01-14T20:37:43.923Z,84.46
2019-01-14T20:40:11.403Z,84.62
2019-01-14T20:42:38.879Z,84.79
2019-01-14T20:45:06.349Z,84.72
2019-01-14T20:47:33.813Z,83.64
2019-01-14T20:50:01.988Z,83.87
2019-01-14T20:52:29.524Z,84.44
2019-01-14T20:54:57.651Z,83.94
2019-01-14T20:57:25.084Z,84.03
2019-01-14T20:59:52.518Z,84.21
2019-01-14T21:02:19.969Z,84.69
2019-01-14T21:04:47.422Z,84.55
2019-01-14T21:07:14.836Z,84.63
2019-01-14T21:09:42.784Z,84.43
2019-01-14T21:12:10.219Z,84.94
2019-01-14T21:14:37.678Z,85.22
2019-01-14T21:17:05.113Z,85.10
2019-01-14T21:19:32.550Z,85.12
2019-01-14T21:22:00.010Z,85.14
2019-01-14T21:24:27.988Z,84.10
2019-01-14T21:26:55.489Z,84.32
2019-01-14T21:29:25.994Z,84.82
2019-01-14T21:31:50.432Z,85.10
2019-01-14T21:34:17.898Z,85.68
2019-01-14T21:36:45.425Z,85.90
2019-01-14T21:39:12.893Z,85.51
2019-01-14T21:41:40.314Z,85.51
2019-01-14T21:44:07.837Z,86.32
2019-01-14T21:46:35.744Z,85.86
2019-01-14T21:49:03.393Z,85.19
2019-01-14T21:51:31.824Z,86.02
2019-01-14T21:53:59.495Z,85.85
2019-01-14T21:56:26.949Z,85.90
2019-01-14T21:58:54.471Z,86.22
2019-01-14T22:01:22.367Z,86.14
2019-01-14T22:03:50.814Z,86.27
2019-01-14T22:06:18.271Z,86.12
2019-01-14T22:08:45.848Z,86.35
2019-01-14T22:11:13.366Z,86.20
2019-01-14T22:13:40.800Z,86.47
2019-01-14T22:16:08.307Z,86.12
2019-01-14T22:18:35.768Z,86.27
2019-01-14T22:21:03.313Z,86.61
2019-01-14T22:23:30.811Z,86.52
2019-01-14T22:25:58.733Z,86.81
2019-01-14T22:28:26.203Z,87.33
2019-01-14T22:30:53.683Z,87.19
2019-01-14T22:33:21.183Z,87.38
2019-01-14T22:35:48.904Z,87.46
2019-01-14T22:38:16.352Z,87.92
2019-01-14T22:40:43.960Z,87.25
2019-01-14T22:43:11.502Z,86.79
2019-01-14T22:45:38.995Z,86.22
2019-01-14T22:48:06.476Z,86.70
2019-01-14T22:50:33.902Z,86.16
2019-01-14T22:53:01.451Z,85.75
2019-01-14T22:55:28.910Z,85.74
2019-01-14T22:57:56.609Z,85.99
2019-01-14T23:00:26.108Z,85.68
2019-01-14T23:02:53.566Z,85.31
2019-01-14T23:05:21.062Z,85.28
2019-01-14T23:07:48.491Z,84.82
2019-01-14T23:10:15.949Z,84.89
2019-01-14T23:12:43.377Z,85.60
2019-01-14T23:15:10.841Z,86.06
2019-01-14T23:17:38.314Z,85.85
2019-01-14T23:20:05.784Z,86.14
2019-01-14T23:22:33.219Z,86.57
2019-01-14T23:25:00.674Z,87.80
2019-01-14T23:27:28.992Z,87.59
2019-01-14T23:29:56.495Z,87.10
2019-01-14T23:32:24.059Z,87.59
2019-01-14T23:34:51.518Z,87.87
2019-01-14T23:37:18.968Z,87.30
2019-01-14T23:39:46.398Z,87.28
2019-01-14T23:42:13.815Z,87.74
2019-01-14T23:44:41.276Z,88.13
2019-01-14T23:47:08.729Z,87.67
2019-01-14T23:49:36.269Z,87.46
2019-01-14T23:52:03.770Z,87.14
2019-01-14T23:54:36.908Z,88.00
2019-01-14T23:56:59.816Z,88.14
2019-01-14T23:59:27.261Z,88.08
